RJTJ(METAR)
04/24 09:00
METAR RJTJ 240000Z VRB01KT 9999 FEW012 BKN015 BKN140 18/12 Q1018 RMK
1CU012 6CU015 7AC140 A3008=
戻る
トップページへ戻る
IMOC Co,.Ltd.